Arthur, Arkansas
Current Conditions -  °F | °C
As of 4:53 AM on Sunday 23 Nov 2014 (Local Time) from KRUE Reporting Station
Moderate Rain Moderate Rain  
Wind Chill: 14°   Ceiling: 1700
Heat Index: 14°   Visibility: 5mi
Dew Point: 13°   Wind: 0mph
Humidity: 93%   Direction: NA
Pressure: 29.66"   Gusts: NA
Location:  35.2722°N, 92.6766°W
Report Text: KRUE 231053Z AUTO 00000KT 5SM RA BR OVC017 14/13 A2966 RMK AO2 RAB40 SLP038 T01390128 PNO $
Loading
Personal Weather Stations






























Interactive Weather Map New forecast layout! Learn more

10-Day Weather Forecast

Advertisements
Track Severe Weather on mobile